El Ejido, Spain
Current Conditions -  °F | °C
As of 6:30 AM on Monday 20 Oct 2014 (Local Time) from LEAM Reporting Station
Clear Clear  
Wind Chill: 75°   Ceiling: Unl
Heat Index: 75°   Visibility: 6mi
Dew Point: 43°   Wind: 9mph
Humidity: 31%   Direction: 10°N
Pressure: 30.06"   Gusts: NA
Location:  36.78°N, 2.81°W
Report Text: LEAM 200430Z 01008KT 300V060 CAVOK 24/06 Q1018
Loading
Personal Weather Stations






























Interactive Weather Map
Tropical Storm Tracking
New forecast layout! Learn more

10-Day Weather Forecast

Advertisements
Track Severe Weather on mobile